Skip Navigation Links
NOAA logo - Click to go to the NOAA homepage
NOAA's National Weather Service
Alaska Aviation Weather Unit
  NWS logo - Click to go to the NWS homepage
Left Navbar Graphic     21 AKDT = 05 GMT

   
NOAA is celebrating 200 years of science, service, and stewardship. Visit the NOAA 200th celebration Web site to learn more.
USA.gov is the U.S. Government's official Web portal to all Federal, state and local government Web resources and services.
Facebook
NWS on Facebook

AAWU Home :: Display TAF Add Bookmark
METAR PAOH 262356Z AUTO 07004KT 10SM FEW075 SCT090 13/02 A2950 RMK AO2
     SLP989 T01330017 10133 20083 58002=

METAR PAOH 270056Z AUTO 11003KT 10SM BKN070 BKN090 13/02 A2950 RMK AO2
     SLP989 T01280022=

METAR PAOH 270156Z AUTO 09004KT 10SM FEW041 SCT050 OVC060 12/03 A2951
     RMK AO2 SLP993 T01170028=

METAR PAOH 270256Z AUTO 10004KT 10SM SCT050 OVC070 12/04 A2952 RMK AO2
     RAB39E56 SLP996 P0000 60000 T01170039 53007=

METAR PAOH 270356Z AUTO 08006KT 10SM BKN042 BKN075 OVC095 11/04 A2953
     RMK AO2 SLP999 T01110039=

METAR PAOH 270456Z AUTO 09003KT 10SM BKN038 OVC070 09/04 A2954 RMK AO2
     SLP003 T00940044=


NOAA's National Weather Service
Alaska Aviation Weather Unit
6930 Sand Lake Road
Anchorage, AK 99502-1845
Disclaimer
Credits
Glossary
Privacy Policy
About Us
Career Opportunities
Contact AAWU Internet Services Site last modified: April, 17th 2012